sensor_id;sensor_type;location;lat;lon;timestamp;temperature;humidity
37289;DHT22;23174;49.462;11.000;2023-07-20T00:00:37;19.80;99.90
37289;DHT22;23174;49.462;11.000;2023-07-20T00:02:38;19.70;99.90
37289;DHT22;23174;49.462;11.000;2023-07-20T00:04:38;19.70;99.90
37289;DHT22;23174;49.462;11.000;2023-07-20T00:06:39;19.60;99.90
37289;DHT22;23174;49.462;11.000;2023-07-20T00:08:40;19.50;99.90
37289;DHT22;23174;49.462;11.000;2023-07-20T00:10:41;19.50;99.90
37289;DHT22;23174;49.462;11.000;2023-07-20T00:12:42;19.50;99.90
37289;DHT22;23174;49.462;11.000;2023-07-20T00:14:47;19.40;99.90
37289;DHT22;23174;49.462;11.000;2023-07-20T00:16:50;19.40;99.90
37289;DHT22;23174;49.462;11.000;2023-07-20T00:18:56;19.30;99.90
37289;DHT22;23174;49.462;11.000;2023-07-20T00:20:56;19.30;99.90
37289;DHT22;23174;49.462;11.000;2023-07-20T00:22:57;19.60;99.90
37289;DHT22;23174;49.462;11.000;2023-07-20T00:24:58;19.70;99.90
37289;DHT22;23174;49.462;11.000;2023-07-20T00:26:58;19.60;99.90
37289;DHT22;23174;49.462;11.000;2023-07-20T00:28:59;19.50;99.90
37289;DHT22;23174;49.462;11.000;2023-07-20T00:31:00;19.60;99.90
37289;DHT22;23174;49.462;11.000;2023-07-20T00:33:01;19.40;99.90
37289;DHT22;23174;49.462;11.000;2023-07-20T00:35:01;19.30;99.90
37289;DHT22;23174;49.462;11.000;2023-07-20T00:37:02;19.50;99.90
37289;DHT22;23174;49.462;11.000;2023-07-20T00:39:03;19.70;99.90
37289;DHT22;23174;49.462;11.000;2023-07-20T00:41:03;19.80;99.90
37289;DHT22;23174;49.462;11.000;2023-07-20T00:43:04;19.60;99.90
37289;DHT22;23174;49.462;11.000;2023-07-20T00:45:05;19.50;99.90
37289;DHT22;23174;49.462;11.000;2023-07-20T00:47:06;19.40;99.90
37289;DHT22;23174;49.462;11.000;2023-07-20T00:49:06;19.40;99.90
37289;DHT22;23174;49.462;11.000;2023-07-20T00:51:07;19.30;99.90
37289;DHT22;23174;49.462;11.000;2023-07-20T00:53:08;19.30;99.90
37289;DHT22;23174;49.462;11.000;2023-07-20T00:55:09;19.20;99.90
37289;DHT22;23174;49.462;11.000;2023-07-20T00:57:13;19.50;99.90
37289;DHT22;23174;49.462;11.000;2023-07-20T00:59:14;19.70;99.90
37289;DHT22;23174;49.462;11.000;2023-07-20T01:01:15;19.50;99.90
37289;DHT22;23174;49.462;11.000;2023-07-20T01:03:15;19.40;99.90
37289;DHT22;23174;49.462;11.000;2023-07-20T01:05:16;19.30;99.90
37289;DHT22;23174;49.462;11.000;2023-07-20T01:07:33;19.30;99.90
37289;DHT22;23174;49.462;11.000;2023-07-20T01:12:27;19.30;99.90
37289;DHT22;23174;49.462;11.000;2023-07-20T01:14:28;19.20;99.90
37289;DHT22;23174;49.462;11.000;2023-07-20T01:16:29;19.30;99.90
37289;DHT22;23174;49.462;11.000;2023-07-20T01:18:30;19.20;99.90
37289;DHT22;23174;49.462;11.000;2023-07-20T01:20:32;19.10;99.90
37289;DHT22;23174;49.462;11.000;2023-07-20T01:27:38;19.10;99.90
37289;DHT22;23174;49.462;11.000;2023-07-20T01:32:03;19.00;99.90
37289;DHT22;23174;49.462;11.000;2023-07-20T01:34:06;19.10;99.90
37289;DHT22;23174;49.462;11.000;2023-07-20T01:36:08;19.10;99.90
37289;DHT22;23174;49.462;11.000;2023-07-20T01:38:11;19.20;99.90
37289;DHT22;23174;49.462;11.000;2023-07-20T01:40:13;19.40;99.90
37289;DHT22;23174;49.462;11.000;2023-07-20T01:42:15;19.30;99.90
37289;DHT22;23174;49.462;11.000;2023-07-20T01:44:15;19.50;99.90
37289;DHT22;23174;49.462;11.000;2023-07-20T01:46:16;19.70;99.90
37289;DHT22;23174;49.462;11.000;2023-07-20T01:48:16;19.80;99.90
37289;DHT22;23174;49.462;11.000;2023-07-20T01:50:17;19.90;99.90
37289;DHT22;23174;49.462;11.000;2023-07-20T01:52:17;19.90;99.90
37289;DHT22;23174;49.462;11.000;2023-07-20T01:54:18;19.80;99.90
37289;DHT22;23174;49.462;11.000;2023-07-20T01:56:18;19.90;99.90
37289;DHT22;23174;49.462;11.000;2023-07-20T01:58:19;19.80;99.90
37289;DHT22;23174;49.462;11.000;2023-07-20T02:00:19;19.60;99.90
37289;DHT22;23174;49.462;11.000;2023-07-20T02:02:26;19.50;99.90
37289;DHT22;23174;49.462;11.000;2023-07-20T02:04:27;19.60;99.90
37289;DHT22;23174;49.462;11.000;2023-07-20T02:06:27;19.70;99.90
37289;DHT22;23174;49.462;11.000;2023-07-20T02:08:28;19.70;99.90
37289;DHT22;23174;49.462;11.000;2023-07-20T02:10:28;19.70;99.90
37289;DHT22;23174;49.462;11.000;2023-07-20T02:12:29;19.90;99.90
37289;DHT22;23174;49.462;11.000;2023-07-20T02:14:30;19.80;99.90
37289;DHT22;23174;49.462;11.000;2023-07-20T02:16:30;19.70;99.90
37289;DHT22;23174;49.462;11.000;2023-07-20T02:18:30;19.90;99.90
37289;DHT22;23174;49.462;11.000;2023-07-20T02:20:31;19.80;99.90
37289;DHT22;23174;49.462;11.000;2023-07-20T02:22:32;19.70;99.90
37289;DHT22;23174;49.462;11.000;2023-07-20T02:24:33;19.50;99.90
37289;DHT22;23174;49.462;11.000;2023-07-20T02:26:34;19.50;99.90
37289;DHT22;23174;49.462;11.000;2023-07-20T02:28:34;19.50;99.90
37289;DHT22;23174;49.462;11.000;2023-07-20T02:30:37;19.60;99.90
37289;DHT22;23174;49.462;11.000;2023-07-20T02:32:38;19.50;99.90
37289;DHT22;23174;49.462;11.000;2023-07-20T02:34:39;19.50;99.90
37289;DHT22;23174;49.462;11.000;2023-07-20T02:36:39;19.60;99.90
37289;DHT22;23174;49.462;11.000;2023-07-20T02:38:40;19.70;99.90
37289;DHT22;23174;49.462;11.000;2023-07-20T02:40:40;19.80;99.90
37289;DHT22;23174;49.462;11.000;2023-07-20T02:42:41;20.00;99.90
37289;DHT22;23174;49.462;11.000;2023-07-20T02:44:41;19.80;99.90
37289;DHT22;23174;49.462;11.000;2023-07-20T02:46:42;19.70;99.90
37289;DHT22;23174;49.462;11.000;2023-07-20T02:48:42;19.80;99.90
37289;DHT22;23174;49.462;11.000;2023-07-20T02:50:44;19.70;99.90
37289;DHT22;23174;49.462;11.000;2023-07-20T02:52:44;19.60;99.90
37289;DHT22;23174;49.462;11.000;2023-07-20T02:54:45;19.50;99.90
37289;DHT22;23174;49.462;11.000;2023-07-20T02:56:46;19.40;99.90
37289;DHT22;23174;49.462;11.000;2023-07-20T02:58:46;19.30;99.90
37289;DHT22;23174;49.462;11.000;2023-07-20T03:00:47;19.20;99.90
37289;DHT22;23174;49.462;11.000;2023-07-20T03:02:47;19.20;99.90
37289;DHT22;23174;49.462;11.000;2023-07-20T03:04:48;19.20;99.90
37289;DHT22;23174;49.462;11.000;2023-07-20T03:06:48;19.10;99.90
37289;DHT22;23174;49.462;11.000;2023-07-20T03:08:49;19.10;99.90
37289;DHT22;23174;49.462;11.000;2023-07-20T03:10:52;19.20;99.90
37289;DHT22;23174;49.462;11.000;2023-07-20T03:12:52;19.10;99.90
37289;DHT22;23174;49.462;11.000;2023-07-20T03:14:53;19.00;99.90
37289;DHT22;23174;49.462;11.000;2023-07-20T03:16:54;19.00;99.90
37289;DHT22;23174;49.462;11.000;2023-07-20T03:18:54;19.10;99.90
37289;DHT22;23174;49.462;11.000;2023-07-20T03:20:55;19.00;99.90
37289;DHT22;23174;49.462;11.000;2023-07-20T03:22:55;19.00;99.90
37289;DHT22;23174;49.462;11.000;2023-07-20T03:24:56;18.90;99.90
37289;DHT22;23174;49.462;11.000;2023-07-20T03:26:56;18.90;99.90
37289;DHT22;23174;49.462;11.000;2023-07-20T03:28:57;19.00;99.90
37289;DHT22;23174;49.462;11.000;2023-07-20T03:30:58;18.90;99.90
37289;DHT22;23174;49.462;11.000;2023-07-20T03:32:58;18.90;99.90
37289;DHT22;23174;49.462;11.000;2023-07-20T03:34:59;18.80;99.90
37289;DHT22;23174;49.462;11.000;2023-07-20T03:36:59;18.80;99.90
37289;DHT22;23174;49.462;11.000;2023-07-20T03:39:00;18.70;99.90
37289;DHT22;23174;49.462;11.000;2023-07-20T03:41:01;18.70;99.90
37289;DHT22;23174;49.462;11.000;2023-07-20T03:43:01;18.70;99.90
37289;DHT22;23174;49.462;11.000;2023-07-20T03:45:02;18.70;99.90
37289;DHT22;23174;49.462;11.000;2023-07-20T03:47:03;18.80;99.90
37289;DHT22;23174;49.462;11.000;2023-07-20T03:49:04;18.80;99.90
37289;DHT22;23174;49.462;11.000;2023-07-20T03:51:06;18.90;99.90
37289;DHT22;23174;49.462;11.000;2023-07-20T03:53:06;18.90;99.90
37289;DHT22;23174;49.462;11.000;2023-07-20T03:55:07;18.80;99.90
37289;DHT22;23174;49.462;11.000;2023-07-20T03:57:08;18.80;99.90
37289;DHT22;23174;49.462;11.000;2023-07-20T03:59:09;18.80;99.90
37289;DHT22;23174;49.462;11.000;2023-07-20T04:01:10;18.90;99.90
37289;DHT22;23174;49.462;11.000;2023-07-20T04:03:11;18.80;99.90
37289;DHT22;23174;49.462;11.000;2023-07-20T04:05:11;18.90;99.90
37289;DHT22;23174;49.462;11.000;2023-07-20T04:07:12;18.90;99.90
37289;DHT22;23174;49.462;11.000;2023-07-20T04:09:12;18.80;99.90
37289;DHT22;23174;49.462;11.000;2023-07-20T04:11:13;18.80;99.90
37289;DHT22;23174;49.462;11.000;2023-07-20T04:13:14;18.90;99.90
37289;DHT22;23174;49.462;11.000;2023-07-20T04:15:14;18.90;99.90
37289;DHT22;23174;49.462;11.000;2023-07-20T04:17:15;18.80;99.90
37289;DHT22;23174;49.462;11.000;2023-07-20T04:19:15;18.80;99.90
37289;DHT22;23174;49.462;11.000;2023-07-20T04:21:16;18.80;99.90
37289;DHT22;23174;49.462;11.000;2023-07-20T04:23:16;18.70;99.90
37289;DHT22;23174;49.462;11.000;2023-07-20T04:25:18;18.70;99.90
37289;DHT22;23174;49.462;11.000;2023-07-20T04:27:19;18.80;99.90
37289;DHT22;23174;49.462;11.000;2023-07-20T04:29:19;18.80;99.90
37289;DHT22;23174;49.462;11.000;2023-07-20T04:31:20;18.70;99.90
37289;DHT22;23174;49.462;11.000;2023-07-20T04:33:20;18.80;99.90
37289;DHT22;23174;49.462;11.000;2023-07-20T04:35:48;18.80;99.90
37289;DHT22;23174;49.462;11.000;2023-07-20T04:37:49;18.90;99.90
37289;DHT22;23174;49.462;11.000;2023-07-20T04:39:49;18.90;99.90
37289;DHT22;23174;49.462;11.000;2023-07-20T04:41:50;19.10;99.90
37289;DHT22;23174;49.462;11.000;2023-07-20T04:43:50;19.00;99.90
37289;DHT22;23174;49.462;11.000;2023-07-20T04:45:51;19.00;99.90
37289;DHT22;23174;49.462;11.000;2023-07-20T04:47:51;18.90;99.90
37289;DHT22;23174;49.462;11.000;2023-07-20T04:49:52;18.90;99.90
37289;DHT22;23174;49.462;11.000;2023-07-20T04:51:52;19.00;99.90
37289;DHT22;23174;49.462;11.000;2023-07-20T04:53:53;19.10;99.90
37289;DHT22;23174;49.462;11.000;2023-07-20T04:55:53;19.00;99.90
37289;DHT22;23174;49.462;11.000;2023-07-20T04:57:54;19.00;99.90
37289;DHT22;23174;49.462;11.000;2023-07-20T04:59:55;19.00;99.90
37289;DHT22;23174;49.462;11.000;2023-07-20T05:01:55;19.00;99.90
37289;DHT22;23174;49.462;11.000;2023-07-20T05:03:56;18.90;99.90
37289;DHT22;23174;49.462;11.000;2023-07-20T05:05:57;19.00;99.90
37289;DHT22;23174;49.462;11.000;2023-07-20T05:07:57;19.10;99.90
37289;DHT22;23174;49.462;11.000;2023-07-20T05:09:58;19.00;99.90
37289;DHT22;23174;49.462;11.000;2023-07-20T05:11:59;19.00;99.90
37289;DHT22;23174;49.462;11.000;2023-07-20T05:14:00;19.00;99.90
37289;DHT22;23174;49.462;11.000;2023-07-20T05:16:00;19.10;99.90
37289;DHT22;23174;49.462;11.000;2023-07-20T05:18:01;18.90;99.90
37289;DHT22;23174;49.462;11.000;2023-07-20T05:20:01;19.10;99.90
37289;DHT22;23174;49.462;11.000;2023-07-20T05:22:02;19.00;99.90
37289;DHT22;23174;49.462;11.000;2023-07-20T05:24:03;19.00;99.90
37289;DHT22;23174;49.462;11.000;2023-07-20T05:26:03;19.10;99.90
37289;DHT22;23174;49.462;11.000;2023-07-20T05:28:04;19.10;99.90
37289;DHT22;23174;49.462;11.000;2023-07-20T05:30:05;19.10;99.90
37289;DHT22;23174;49.462;11.000;2023-07-20T05:32:07;19.00;99.90
37289;DHT22;23174;49.462;11.000;2023-07-20T05:34:08;18.90;99.90
37289;DHT22;23174;49.462;11.000;2023-07-20T05:36:08;19.00;99.90
37289;DHT22;23174;49.462;11.000;2023-07-20T05:38:09;19.20;99.90
37289;DHT22;23174;49.462;11.000;2023-07-20T05:40:09;19.20;99.90
37289;DHT22;23174;49.462;11.000;2023-07-20T05:42:12;19.10;99.90
37289;DHT22;23174;49.462;11.000;2023-07-20T05:44:12;19.20;99.90
37289;DHT22;23174;49.462;11.000;2023-07-20T05:46:13;19.30;99.90
37289;DHT22;23174;49.462;11.000;2023-07-20T05:48:13;19.20;99.90
37289;DHT22;23174;49.462;11.000;2023-07-20T05:50:14;19.30;99.90
37289;DHT22;23174;49.462;11.000;2023-07-20T05:52:14;19.30;99.90
37289;DHT22;23174;49.462;11.000;2023-07-20T05:54:15;19.30;99.90
37289;DHT22;23174;49.462;11.000;2023-07-20T05:56:15;19.40;99.90
37289;DHT22;23174;49.462;11.000;2023-07-20T05:58:17;19.50;99.90
37289;DHT22;23174;49.462;11.000;2023-07-20T06:00:17;19.60;99.90
37289;DHT22;23174;49.462;11.000;2023-07-20T06:02:19;19.50;99.90
37289;DHT22;23174;49.462;11.000;2023-07-20T06:04:20;19.50;99.90
37289;DHT22;23174;49.462;11.000;2023-07-20T06:06:20;19.50;99.90
37289;DHT22;23174;49.462;11.000;2023-07-20T06:08:21;19.60;99.90
37289;DHT22;23174;49.462;11.000;2023-07-20T06:10:22;19.40;99.90
37289;DHT22;23174;49.462;11.000;2023-07-20T06:12:22;19.40;99.90
37289;DHT22;23174;49.462;11.000;2023-07-20T06:14:23;19.50;99.90
37289;DHT22;23174;49.462;11.000;2023-07-20T06:16:23;19.60;99.90
37289;DHT22;23174;49.462;11.000;2023-07-20T06:18:24;19.40;99.90
37289;DHT22;23174;49.462;11.000;2023-07-20T06:20:24;19.40;99.90
37289;DHT22;23174;49.462;11.000;2023-07-20T06:22:25;19.60;99.90
37289;DHT22;23174;49.462;11.000;2023-07-20T06:24:25;19.70;99.90
37289;DHT22;23174;49.462;11.000;2023-07-20T06:26:26;19.80;99.90
37289;DHT22;23174;49.462;11.000;2023-07-20T06:28:26;19.90;99.90
37289;DHT22;23174;49.462;11.000;2023-07-20T06:30:27;20.00;99.90
37289;DHT22;23174;49.462;11.000;2023-07-20T06:32:27;19.90;99.90
37289;DHT22;23174;49.462;11.000;2023-07-20T06:34:28;20.00;99.90
37289;DHT22;23174;49.462;11.000;2023-07-20T06:36:29;20.10;99.90
37289;DHT22;23174;49.462;11.000;2023-07-20T06:38:30;20.00;99.90
37289;DHT22;23174;49.462;11.000;2023-07-20T06:40:30;20.10;99.90
37289;DHT22;23174;49.462;11.000;2023-07-20T06:42:31;20.00;99.90
37289;DHT22;23174;49.462;11.000;2023-07-20T06:44:32;20.10;99.90
37289;DHT22;23174;49.462;11.000;2023-07-20T06:46:32;20.20;99.90
37289;DHT22;23174;49.462;11.000;2023-07-20T06:48:33;20.30;99.90
37289;DHT22;23174;49.462;11.000;2023-07-20T06:50:34;20.20;99.90
37289;DHT22;23174;49.462;11.000;2023-07-20T06:52:34;20.20;99.90
37289;DHT22;23174;49.462;11.000;2023-07-20T06:54:35;20.20;99.90
37289;DHT22;23174;49.462;11.000;2023-07-20T06:56:35;20.30;99.90
37289;DHT22;23174;49.462;11.000;2023-07-20T06:58:36;20.30;99.90
37289;DHT22;23174;49.462;11.000;2023-07-20T07:00:37;20.30;99.90
37289;DHT22;23174;49.462;11.000;2023-07-20T07:02:37;20.40;99.90
37289;DHT22;23174;49.462;11.000;2023-07-20T07:04:38;20.50;99.90
37289;DHT22;23174;49.462;11.000;2023-07-20T07:06:38;20.70;99.90
37289;DHT22;23174;49.462;11.000;2023-07-20T07:08:39;20.60;99.90
37289;DHT22;23174;49.462;11.000;2023-07-20T07:10:39;20.50;99.90
37289;DHT22;23174;49.462;11.000;2023-07-20T07:12:40;20.60;99.90
37289;DHT22;23174;49.462;11.000;2023-07-20T07:14:41;20.60;99.90
37289;DHT22;23174;49.462;11.000;2023-07-20T07:16:41;20.60;99.90
37289;DHT22;23174;49.462;11.000;2023-07-20T07:18:42;20.70;99.90
37289;DHT22;23174;49.462;11.000;2023-07-20T07:20:50;20.80;99.90
37289;DHT22;23174;49.462;11.000;2023-07-20T07:22:50;20.80;99.90
37289;DHT22;23174;49.462;11.000;2023-07-20T07:24:52;20.80;99.90
37289;DHT22;23174;49.462;11.000;2023-07-20T07:26:52;20.80;99.90
37289;DHT22;23174;49.462;11.000;2023-07-20T07:28:53;20.70;99.90
37289;DHT22;23174;49.462;11.000;2023-07-20T07:30:55;20.80;99.90
37289;DHT22;23174;49.462;11.000;2023-07-20T07:32:55;20.80;99.90
37289;DHT22;23174;49.462;11.000;2023-07-20T07:34:56;20.80;99.90
37289;DHT22;23174;49.462;11.000;2023-07-20T07:36:58;20.80;99.90
37289;DHT22;23174;49.462;11.000;2023-07-20T07:38:59;21.00;99.90
37289;DHT22;23174;49.462;11.000;2023-07-20T07:40:59;21.00;99.90
37289;DHT22;23174;49.462;11.000;2023-07-20T07:43:00;21.00;99.90
37289;DHT22;23174;49.462;11.000;2023-07-20T07:45:00;21.10;99.90
37289;DHT22;23174;49.462;11.000;2023-07-20T07:47:01;20.90;99.90
37289;DHT22;23174;49.462;11.000;2023-07-20T07:49:01;20.90;99.90
37289;DHT22;23174;49.462;11.000;2023-07-20T07:51:02;21.10;99.90
37289;DHT22;23174;49.462;11.000;2023-07-20T07:53:03;21.20;99.90
37289;DHT22;23174;49.462;11.000;2023-07-20T07:55:04;21.10;99.90
37289;DHT22;23174;49.462;11.000;2023-07-20T07:57:04;21.20;99.90
37289;DHT22;23174;49.462;11.000;2023-07-20T07:59:05;21.10;99.90
37289;DHT22;23174;49.462;11.000;2023-07-20T08:01:05;21.20;99.90
37289;DHT22;23174;49.462;11.000;2023-07-20T08:03:06;21.20;99.90
37289;DHT22;23174;49.462;11.000;2023-07-20T08:05:07;21.20;99.90
37289;DHT22;23174;49.462;11.000;2023-07-20T08:07:08;21.30;99.90
37289;DHT22;23174;49.462;11.000;2023-07-20T08:09:08;21.50;99.90
37289;DHT22;23174;49.462;11.000;2023-07-20T08:11:09;21.60;99.90
37289;DHT22;23174;49.462;11.000;2023-07-20T08:13:09;21.60;99.90
37289;DHT22;23174;49.462;11.000;2023-07-20T08:15:11;21.50;99.90
37289;DHT22;23174;49.462;11.000;2023-07-20T08:17:12;21.40;99.90
37289;DHT22;23174;49.462;11.000;2023-07-20T08:19:13;21.50;99.90
37289;DHT22;23174;49.462;11.000;2023-07-20T08:21:14;21.60;99.90
37289;DHT22;23174;49.462;11.000;2023-07-20T08:23:15;21.60;99.90
37289;DHT22;23174;49.462;11.000;2023-07-20T08:25:15;21.60;99.90
37289;DHT22;23174;49.462;11.000;2023-07-20T08:27:16;21.70;99.90
37289;DHT22;23174;49.462;11.000;2023-07-20T08:29:16;21.70;99.90
37289;DHT22;23174;49.462;11.000;2023-07-20T08:31:17;21.90;99.90
37289;DHT22;23174;49.462;11.000;2023-07-20T08:33:18;21.90;99.90
37289;DHT22;23174;49.462;11.000;2023-07-20T08:35:23;21.90;99.90
37289;DHT22;23174;49.462;11.000;2023-07-20T08:37:24;21.80;99.90
37289;DHT22;23174;49.462;11.000;2023-07-20T08:39:24;21.80;99.90
37289;DHT22;23174;49.462;11.000;2023-07-20T08:41:25;21.80;99.90
37289;DHT22;23174;49.462;11.000;2023-07-20T08:43:27;21.90;99.90
37289;DHT22;23174;49.462;11.000;2023-07-20T08:45:28;22.00;99.90
37289;DHT22;23174;49.462;11.000;2023-07-20T08:47:32;22.00;99.90
37289;DHT22;23174;49.462;11.000;2023-07-20T08:49:34;22.00;99.90
37289;DHT22;23174;49.462;11.000;2023-07-20T08:51:35;22.10;99.90
37289;DHT22;23174;49.462;11.000;2023-07-20T08:53:36;22.10;99.90
37289;DHT22;23174;49.462;11.000;2023-07-20T08:55:37;22.20;99.90
37289;DHT22;23174;49.462;11.000;2023-07-20T08:57:39;22.10;99.90
37289;DHT22;23174;49.462;11.000;2023-07-20T08:59:40;22.20;99.90
37289;DHT22;23174;49.462;11.000;2023-07-20T09:01:41;22.30;99.90
37289;DHT22;23174;49.462;11.000;2023-07-20T09:03:45;22.20;99.90
37289;DHT22;23174;49.462;11.000;2023-07-20T09:05:45;22.20;99.90
37289;DHT22;23174;49.462;11.000;2023-07-20T09:07:46;22.10;99.90
37289;DHT22;23174;49.462;11.000;2023-07-20T09:09:47;22.10;99.90
37289;DHT22;23174;49.462;11.000;2023-07-20T09:11:49;22.30;99.90
37289;DHT22;23174;49.462;11.000;2023-07-20T09:14:08;22.70;99.90
37289;DHT22;23174;49.462;11.000;2023-07-20T09:16:11;22.70;99.90
37289;DHT22;23174;49.462;11.000;2023-07-20T09:18:23;22.70;99.90
37289;DHT22;23174;49.462;11.000;2023-07-20T09:20:24;22.60;99.90
37289;DHT22;23174;49.462;11.000;2023-07-20T09:22:31;22.60;99.90
37289;DHT22;23174;49.462;11.000;2023-07-20T09:24:32;22.50;99.90
37289;DHT22;23174;49.462;11.000;2023-07-20T09:26:40;22.70;99.90
37289;DHT22;23174;49.462;11.000;2023-07-20T09:28:42;22.70;99.90
37289;DHT22;23174;49.462;11.000;2023-07-20T09:30:44;22.90;99.90
37289;DHT22;23174;49.462;11.000;2023-07-20T09:32:49;22.80;99.90
37289;DHT22;23174;49.462;11.000;2023-07-20T09:34:51;22.80;99.90
37289;DHT22;23174;49.462;11.000;2023-07-20T09:36:52;22.80;99.90
37289;DHT22;23174;49.462;11.000;2023-07-20T09:38:52;22.90;99.90
37289;DHT22;23174;49.462;11.000;2023-07-20T09:40:53;22.90;99.90
37289;DHT22;23174;49.462;11.000;2023-07-20T09:42:54;22.90;99.90
37289;DHT22;23174;49.462;11.000;2023-07-20T09:45:01;22.90;99.90
37289;DHT22;23174;49.462;11.000;2023-07-20T09:47:03;22.80;99.90
37289;DHT22;23174;49.462;11.000;2023-07-20T09:49:08;22.60;99.90
37289;DHT22;23174;49.462;11.000;2023-07-20T09:51:09;22.50;99.90
37289;DHT22;23174;49.462;11.000;2023-07-20T09:53:13;22.70;99.90
37289;DHT22;23174;49.462;11.000;2023-07-20T09:55:17;22.80;99.90
37289;DHT22;23174;49.462;11.000;2023-07-20T09:57:18;22.90;99.90
37289;DHT22;23174;49.462;11.000;2023-07-20T09:59:18;22.80;99.50
37289;DHT22;23174;49.462;11.000;2023-07-20T10:01:20;22.90;99.90
37289;DHT22;23174;49.462;11.000;2023-07-20T10:03:24;22.90;98.60
37289;DHT22;23174;49.462;11.000;2023-07-20T10:05:28;22.80;98.70
37289;DHT22;23174;49.462;11.000;2023-07-20T10:07:36;22.90;99.90
37289;DHT22;23174;49.462;11.000;2023-07-20T10:09:39;22.90;99.90
37289;DHT22;23174;49.462;11.000;2023-07-20T10:11:45;22.80;99.90
37289;DHT22;23174;49.462;11.000;2023-07-20T10:13:46;22.80;99.90
37289;DHT22;23174;49.462;11.000;2023-07-20T10:15:54;22.90;99.70
37289;DHT22;23174;49.462;11.000;2023-07-20T10:18:34;22.80;99.90
37289;DHT22;23174;49.462;11.000;2023-07-20T10:20:40;22.90;99.90
37289;DHT22;23174;49.462;11.000;2023-07-20T10:22:42;22.80;99.90
37289;DHT22;23174;49.462;11.000;2023-07-20T10:24:47;22.60;99.90
37289;DHT22;23174;49.462;11.000;2023-07-20T10:26:50;22.80;99.90
37289;DHT22;23174;49.462;11.000;2023-07-20T10:28:51;23.00;99.60
37289;DHT22;23174;49.462;11.000;2023-07-20T10:30:53;23.00;99.10
37289;DHT22;23174;49.462;11.000;2023-07-20T10:32:53;23.10;99.30
37289;DHT22;23174;49.462;11.000;2023-07-20T10:34:56;23.00;99.50
37289;DHT22;23174;49.462;11.000;2023-07-20T10:36:57;22.80;99.80
37289;DHT22;23174;49.462;11.000;2023-07-20T10:38:57;23.10;99.60
37289;DHT22;23174;49.462;11.000;2023-07-20T10:40:58;23.30;99.10
37289;DHT22;23174;49.462;11.000;2023-07-20T10:43:01;23.20;98.70
37289;DHT22;23174;49.462;11.000;2023-07-20T10:45:02;23.10;98.90
37289;DHT22;23174;49.462;11.000;2023-07-20T10:47:11;23.30;99.90
37289;DHT22;23174;49.462;11.000;2023-07-20T10:49:13;23.10;98.80
37289;DHT22;23174;49.462;11.000;2023-07-20T10:51:20;23.00;98.60
37289;DHT22;23174;49.462;11.000;2023-07-20T10:53:21;23.00;99.50
37289;DHT22;23174;49.462;11.000;2023-07-20T10:55:21;23.10;98.10
37289;DHT22;23174;49.462;11.000;2023-07-20T10:57:24;23.20;97.80
37289;DHT22;23174;49.462;11.000;2023-07-20T11:01:36;23.30;95.80
37289;DHT22;23174;49.462;11.000;2023-07-20T11:03:38;23.40;96.30
37289;DHT22;23174;49.462;11.000;2023-07-20T11:05:40;23.40;95.80
37289;DHT22;23174;49.462;11.000;2023-07-20T11:07:40;23.50;95.30
37289;DHT22;23174;49.462;11.000;2023-07-20T11:09:41;23.60;94.80
37289;DHT22;23174;49.462;11.000;2023-07-20T11:11:44;23.60;95.00
37289;DHT22;23174;49.462;11.000;2023-07-20T11:14:06;23.50;95.20
37289;DHT22;23174;49.462;11.000;2023-07-20T11:16:06;23.70;95.30
37289;DHT22;23174;49.462;11.000;2023-07-20T11:18:13;23.70;94.50
37289;DHT22;23174;49.462;11.000;2023-07-20T11:20:14;23.70;94.20
37289;DHT22;23174;49.462;11.000;2023-07-20T11:22:17;23.60;94.10
37289;DHT22;23174;49.462;11.000;2023-07-20T11:24:18;23.50;94.80
37289;DHT22;23174;49.462;11.000;2023-07-20T11:26:19;23.50;95.50
37289;DHT22;23174;49.462;11.000;2023-07-20T11:28:19;23.30;95.20
37289;DHT22;23174;49.462;11.000;2023-07-20T11:30:20;23.30;95.50
37289;DHT22;23174;49.462;11.000;2023-07-20T11:32:21;23.30;95.90
37289;DHT22;23174;49.462;11.000;2023-07-20T11:34:22;23.40;95.80
37289;DHT22;23174;49.462;11.000;2023-07-20T11:36:23;23.50;95.60
37289;DHT22;23174;49.462;11.000;2023-07-20T11:38:24;23.50;95.80
37289;DHT22;23174;49.462;11.000;2023-07-20T11:40:24;23.50;95.70
37289;DHT22;23174;49.462;11.000;2023-07-20T11:42:25;23.70;96.20
37289;DHT22;23174;49.462;11.000;2023-07-20T11:44:29;23.80;95.70
37289;DHT22;23174;49.462;11.000;2023-07-20T11:46:29;24.00;95.40
37289;DHT22;23174;49.462;11.000;2023-07-20T11:48:30;24.00;94.40
37289;DHT22;23174;49.462;11.000;2023-07-20T11:50:30;24.00;94.80
37289;DHT22;23174;49.462;11.000;2023-07-20T11:52:31;24.20;92.50
37289;DHT22;23174;49.462;11.000;2023-07-20T11:54:32;24.10;92.00
37289;DHT22;23174;49.462;11.000;2023-07-20T11:56:33;24.20;91.90
37289;DHT22;23174;49.462;11.000;2023-07-20T11:58:34;24.20;90.70
37289;DHT22;23174;49.462;11.000;2023-07-20T12:00:36;24.10;88.90
37289;DHT22;23174;49.462;11.000;2023-07-20T12:02:38;24.00;89.60
37289;DHT22;23174;49.462;11.000;2023-07-20T12:04:39;24.10;90.10
37289;DHT22;23174;49.462;11.000;2023-07-20T12:06:40;24.20;88.80
37289;DHT22;23174;49.462;11.000;2023-07-20T12:08:42;24.30;87.60
37289;DHT22;23174;49.462;11.000;2023-07-20T12:10:43;24.20;89.70
37289;DHT22;23174;49.462;11.000;2023-07-20T12:12:44;24.30;88.70
37289;DHT22;23174;49.462;11.000;2023-07-20T12:14:45;24.30;88.20
37289;DHT22;23174;49.462;11.000;2023-07-20T12:16:53;24.40;86.60
37289;DHT22;23174;49.462;11.000;2023-07-20T12:19:08;24.30;89.30
37289;DHT22;23174;49.462;11.000;2023-07-20T12:21:09;24.30;90.40
37289;DHT22;23174;49.462;11.000;2023-07-20T12:23:11;24.20;89.70
37289;DHT22;23174;49.462;11.000;2023-07-20T12:25:12;24.30;87.40
37289;DHT22;23174;49.462;11.000;2023-07-20T12:27:13;24.20;86.80
37289;DHT22;23174;49.462;11.000;2023-07-20T12:29:16;24.40;86.90
37289;DHT22;23174;49.462;11.000;2023-07-20T12:31:17;24.30;87.70
37289;DHT22;23174;49.462;11.000;2023-07-20T12:33:17;24.60;86.80
37289;DHT22;23174;49.462;11.000;2023-07-20T12:35:18;24.60;85.20
37289;DHT22;23174;49.462;11.000;2023-07-20T12:37:18;24.60;86.00
37289;DHT22;23174;49.462;11.000;2023-07-20T12:39:19;24.50;87.20
37289;DHT22;23174;49.462;11.000;2023-07-20T12:41:19;24.40;87.60
37289;DHT22;23174;49.462;11.000;2023-07-20T12:43:20;24.50;86.40
37289;DHT22;23174;49.462;11.000;2023-07-20T12:45:21;24.60;87.30
37289;DHT22;23174;49.462;11.000;2023-07-20T12:47:22;24.50;87.20